sensor_id;sensor_type;location;lat;lon;timestamp;P1;durP1;ratioP1;P2;durP2;ratioP2
63157;SDS011;49381;49.338;8.794;2022-09-17T00:00:23;4.25;;;1.50;;
63157;SDS011;49381;49.338;8.794;2022-09-17T00:02:23;5.35;;;2.20;;
63157;SDS011;49381;49.338;8.794;2022-09-17T00:04:24;1.15;;;0.65;;
63157;SDS011;49381;49.338;8.794;2022-09-17T00:06:24;2.00;;;0.82;;
63157;SDS011;49381;49.338;8.794;2022-09-17T00:08:25;1.77;;;0.60;;
63157;SDS011;49381;49.338;8.794;2022-09-17T00:10:26;2.90;;;0.90;;
63157;SDS011;49381;49.338;8.794;2022-09-17T00:12:27;2.10;;;0.57;;
63157;SDS011;49381;49.338;8.794;2022-09-17T00:14:28;3.03;;;0.60;;
63157;SDS011;49381;49.338;8.794;2022-09-17T00:16:29;2.00;;;0.68;;
63157;SDS011;49381;49.338;8.794;2022-09-17T00:18:32;1.00;;;0.70;;
63157;SDS011;49381;49.338;8.794;2022-09-17T00:20:36;3.15;;;0.73;;
63157;SDS011;49381;49.338;8.794;2022-09-17T00:22:37;1.70;;;0.70;;
63157;SDS011;49381;49.338;8.794;2022-09-17T00:24:38;2.25;;;0.70;;
63157;SDS011;49381;49.338;8.794;2022-09-17T00:26:38;3.42;;;0.70;;
63157;SDS011;49381;49.338;8.794;2022-09-17T00:28:40;3.97;;;0.80;;
63157;SDS011;49381;49.338;8.794;2022-09-17T00:30:41;0.98;;;0.60;;
63157;SDS011;49381;49.338;8.794;2022-09-17T00:32:42;2.53;;;0.82;;
63157;SDS011;49381;49.338;8.794;2022-09-17T00:34:42;2.15;;;0.80;;
63157;SDS011;49381;49.338;8.794;2022-09-17T00:36:43;1.83;;;0.55;;
63157;SDS011;49381;49.338;8.794;2022-09-17T00:38:43;1.70;;;0.70;;
63157;SDS011;49381;49.338;8.794;2022-09-17T00:40:43;1.85;;;0.68;;
63157;SDS011;49381;49.338;8.794;2022-09-17T00:42:44;3.15;;;0.55;;
63157;SDS011;49381;49.338;8.794;2022-09-17T00:44:47;1.02;;;0.55;;
63157;SDS011;49381;49.338;8.794;2022-09-17T00:46:48;1.58;;;0.73;;
63157;SDS011;49381;49.338;8.794;2022-09-17T00:48:50;4.40;;;0.98;;
63157;SDS011;49381;49.338;8.794;2022-09-17T00:50:52;6.03;;;1.27;;
63157;SDS011;49381;49.338;8.794;2022-09-17T00:52:55;1.73;;;0.45;;
63157;SDS011;49381;49.338;8.794;2022-09-17T00:55:00;1.25;;;0.57;;
63157;SDS011;49381;49.338;8.794;2022-09-17T00:57:04;3.70;;;0.82;;
63157;SDS011;49381;49.338;8.794;2022-09-17T00:59:05;2.35;;;0.60;;
63157;SDS011;49381;49.338;8.794;2022-09-17T01:01:07;0.88;;;0.50;;
63157;SDS011;49381;49.338;8.794;2022-09-17T01:03:08;2.45;;;0.75;;
63157;SDS011;49381;49.338;8.794;2022-09-17T01:05:08;2.47;;;0.70;;
63157;SDS011;49381;49.338;8.794;2022-09-17T01:07:11;4.53;;;0.70;;
63157;SDS011;49381;49.338;8.794;2022-09-17T01:09:24;1.95;;;0.60;;
63157;SDS011;49381;49.338;8.794;2022-09-17T01:11:40;6.53;;;0.80;;
63157;SDS011;49381;49.338;8.794;2022-09-17T01:13:51;3.85;;;0.75;;
63157;SDS011;49381;49.338;8.794;2022-09-17T01:16:05;1.95;;;0.98;;
63157;SDS011;49381;49.338;8.794;2022-09-17T01:18:20;2.53;;;0.68;;
63157;SDS011;49381;49.338;8.794;2022-09-17T01:23:18;2.97;;;1.00;;
63157;SDS011;49381;49.338;8.794;2022-09-17T01:25:37;2.17;;;0.80;;
63157;SDS011;49381;49.338;8.794;2022-09-17T01:30:15;2.58;;;0.98;;
63157;SDS011;49381;49.338;8.794;2022-09-17T01:32:21;2.35;;;0.63;;
63157;SDS011;49381;49.338;8.794;2022-09-17T01:34:25;2.63;;;0.80;;
63157;SDS011;49381;49.338;8.794;2022-09-17T01:36:35;3.33;;;1.15;;
63157;SDS011;49381;49.338;8.794;2022-09-17T01:38:44;0.63;;;0.55;;
63157;SDS011;49381;49.338;8.794;2022-09-17T01:40:53;6.30;;;1.38;;
63157;SDS011;49381;49.338;8.794;2022-09-17T01:43:01;1.85;;;0.65;;
63157;SDS011;49381;49.338;8.794;2022-09-17T01:45:05;2.80;;;0.82;;
63157;SDS011;49381;49.338;8.794;2022-09-17T01:47:09;4.70;;;0.80;;
63157;SDS011;49381;49.338;8.794;2022-09-17T01:49:14;1.55;;;0.77;;
63157;SDS011;49381;49.338;8.794;2022-09-17T01:51:16;4.65;;;0.60;;
63157;SDS011;49381;49.338;8.794;2022-09-17T01:53:19;2.20;;;0.70;;
63157;SDS011;49381;49.338;8.794;2022-09-17T01:55:24;4.05;;;0.88;;
63157;SDS011;49381;49.338;8.794;2022-09-17T01:57:30;1.50;;;0.68;;
63157;SDS011;49381;49.338;8.794;2022-09-17T01:59:35;3.97;;;0.90;;
63157;SDS011;49381;49.338;8.794;2022-09-17T02:01:39;5.22;;;0.93;;
63157;SDS011;49381;49.338;8.794;2022-09-17T02:03:45;4.30;;;0.85;;
63157;SDS011;49381;49.338;8.794;2022-09-17T02:05:53;4.93;;;0.98;;
63157;SDS011;49381;49.338;8.794;2022-09-17T02:07:58;3.60;;;0.85;;
63157;SDS011;49381;49.338;8.794;2022-09-17T02:10:04;7.60;;;1.15;;
63157;SDS011;49381;49.338;8.794;2022-09-17T02:12:10;4.22;;;1.00;;
63157;SDS011;49381;49.338;8.794;2022-09-17T02:14:15;3.83;;;0.88;;
63157;SDS011;49381;49.338;8.794;2022-09-17T02:16:21;4.18;;;0.90;;
63157;SDS011;49381;49.338;8.794;2022-09-17T02:18:25;4.35;;;0.90;;
63157;SDS011;49381;49.338;8.794;2022-09-17T02:20:32;4.47;;;0.73;;
63157;SDS011;49381;49.338;8.794;2022-09-17T02:22:40;2.97;;;0.88;;
63157;SDS011;49381;49.338;8.794;2022-09-17T02:24:43;3.33;;;0.85;;
63157;SDS011;49381;49.338;8.794;2022-09-17T02:26:47;3.63;;;0.90;;
63157;SDS011;49381;49.338;8.794;2022-09-17T02:28:55;4.80;;;1.15;;
63157;SDS011;49381;49.338;8.794;2022-09-17T02:31:00;3.83;;;0.90;;
63157;SDS011;49381;49.338;8.794;2022-09-17T02:33:00;6.82;;;0.93;;
63157;SDS011;49381;49.338;8.794;2022-09-17T02:35:04;2.47;;;0.80;;
63157;SDS011;49381;49.338;8.794;2022-09-17T02:37:05;3.60;;;1.00;;
63157;SDS011;49381;49.338;8.794;2022-09-17T02:39:08;4.97;;;0.90;;
63157;SDS011;49381;49.338;8.794;2022-09-17T02:41:10;5.20;;;1.15;;
63157;SDS011;49381;49.338;8.794;2022-09-17T02:43:16;5.75;;;0.82;;
63157;SDS011;49381;49.338;8.794;2022-09-17T02:45:28;2.67;;;0.82;;
63157;SDS011;49381;49.338;8.794;2022-09-17T02:47:50;2.75;;;0.77;;
63157;SDS011;49381;49.338;8.794;2022-09-17T02:50:11;3.55;;;0.70;;
63157;SDS011;49381;49.338;8.794;2022-09-17T02:52:20;4.32;;;0.90;;
63157;SDS011;49381;49.338;8.794;2022-09-17T02:54:30;1.70;;;0.75;;
63157;SDS011;49381;49.338;8.794;2022-09-17T02:56:39;3.78;;;1.00;;
63157;SDS011;49381;49.338;8.794;2022-09-17T02:58:46;2.38;;;0.75;;
63157;SDS011;49381;49.338;8.794;2022-09-17T03:00:51;4.03;;;0.88;;
63157;SDS011;49381;49.338;8.794;2022-09-17T03:02:54;3.58;;;0.85;;
63157;SDS011;49381;49.338;8.794;2022-09-17T03:04:57;2.55;;;0.68;;
63157;SDS011;49381;49.338;8.794;2022-09-17T03:06:58;1.88;;;0.60;;
63157;SDS011;49381;49.338;8.794;2022-09-17T03:09:03;8.18;;;1.13;;
63157;SDS011;49381;49.338;8.794;2022-09-17T03:11:05;2.83;;;0.80;;
63157;SDS011;49381;49.338;8.794;2022-09-17T03:13:05;2.60;;;0.80;;
63157;SDS011;49381;49.338;8.794;2022-09-17T03:15:06;1.98;;;0.70;;
63157;SDS011;49381;49.338;8.794;2022-09-17T03:17:08;4.03;;;0.93;;
63157;SDS011;49381;49.338;8.794;2022-09-17T03:19:09;2.85;;;0.90;;
63157;SDS011;49381;49.338;8.794;2022-09-17T03:21:10;5.85;;;1.05;;
63157;SDS011;49381;49.338;8.794;2022-09-17T03:23:10;1.98;;;0.90;;
63157;SDS011;49381;49.338;8.794;2022-09-17T03:25:10;3.50;;;1.00;;
63157;SDS011;49381;49.338;8.794;2022-09-17T03:27:12;3.60;;;1.75;;
63157;SDS011;49381;49.338;8.794;2022-09-17T03:29:13;5.32;;;1.02;;
63157;SDS011;49381;49.338;8.794;2022-09-17T03:31:13;3.30;;;0.98;;
63157;SDS011;49381;49.338;8.794;2022-09-17T03:33:13;2.65;;;1.00;;
63157;SDS011;49381;49.338;8.794;2022-09-17T03:35:13;3.03;;;1.23;;
63157;SDS011;49381;49.338;8.794;2022-09-17T03:37:14;1.58;;;0.80;;
63157;SDS011;49381;49.338;8.794;2022-09-17T03:39:14;3.70;;;1.20;;
63157;SDS011;49381;49.338;8.794;2022-09-17T03:41:15;4.97;;;1.08;;
63157;SDS011;49381;49.338;8.794;2022-09-17T03:43:16;5.38;;;1.27;;
63157;SDS011;49381;49.338;8.794;2022-09-17T03:45:16;5.85;;;1.35;;
63157;SDS011;49381;49.338;8.794;2022-09-17T03:47:17;2.65;;;0.98;;
63157;SDS011;49381;49.338;8.794;2022-09-17T03:49:17;6.82;;;1.27;;
63157;SDS011;49381;49.338;8.794;2022-09-17T03:51:17;5.38;;;0.93;;
63157;SDS011;49381;49.338;8.794;2022-09-17T03:53:18;7.95;;;1.50;;
63157;SDS011;49381;49.338;8.794;2022-09-17T03:55:19;4.43;;;1.15;;
63157;SDS011;49381;49.338;8.794;2022-09-17T03:57:19;4.13;;;1.30;;
63157;SDS011;49381;49.338;8.794;2022-09-17T03:59:21;4.85;;;1.20;;
63157;SDS011;49381;49.338;8.794;2022-09-17T04:01:21;4.80;;;1.50;;
63157;SDS011;49381;49.338;8.794;2022-09-17T04:03:22;7.53;;;1.27;;
63157;SDS011;49381;49.338;8.794;2022-09-17T04:05:22;3.80;;;1.02;;
63157;SDS011;49381;49.338;8.794;2022-09-17T04:07:22;2.45;;;1.10;;
63157;SDS011;49381;49.338;8.794;2022-09-17T04:09:23;6.97;;;1.33;;
63157;SDS011;49381;49.338;8.794;2022-09-17T04:11:23;2.13;;;1.02;;
63157;SDS011;49381;49.338;8.794;2022-09-17T04:13:23;5.63;;;1.10;;
63157;SDS011;49381;49.338;8.794;2022-09-17T04:15:25;4.10;;;1.08;;
63157;SDS011;49381;49.338;8.794;2022-09-17T04:17:26;5.32;;;0.82;;
63157;SDS011;49381;49.338;8.794;2022-09-17T04:19:26;5.28;;;1.00;;
63157;SDS011;49381;49.338;8.794;2022-09-17T04:21:26;4.70;;;1.00;;
63157;SDS011;49381;49.338;8.794;2022-09-17T04:23:27;4.38;;;1.42;;
63157;SDS011;49381;49.338;8.794;2022-09-17T04:25:27;6.72;;;1.48;;
63157;SDS011;49381;49.338;8.794;2022-09-17T04:27:27;4.50;;;1.02;;
63157;SDS011;49381;49.338;8.794;2022-09-17T04:29:28;6.15;;;1.00;;
63157;SDS011;49381;49.338;8.794;2022-09-17T04:31:29;4.32;;;1.10;;
63157;SDS011;49381;49.338;8.794;2022-09-17T04:33:30;5.03;;;1.15;;
63157;SDS011;49381;49.338;8.794;2022-09-17T04:35:30;1.85;;;0.80;;
63157;SDS011;49381;49.338;8.794;2022-09-17T04:37:30;2.60;;;0.98;;
63157;SDS011;49381;49.338;8.794;2022-09-17T04:39:31;3.03;;;1.25;;
63157;SDS011;49381;49.338;8.794;2022-09-17T04:41:31;5.07;;;1.08;;
63157;SDS011;49381;49.338;8.794;2022-09-17T04:43:31;2.72;;;0.90;;
63157;SDS011;49381;49.338;8.794;2022-09-17T04:45:32;4.43;;;1.30;;
63157;SDS011;49381;49.338;8.794;2022-09-17T04:47:36;2.75;;;1.20;;
63157;SDS011;49381;49.338;8.794;2022-09-17T04:49:37;6.13;;;1.17;;
63157;SDS011;49381;49.338;8.794;2022-09-17T04:51:37;4.35;;;0.98;;
63157;SDS011;49381;49.338;8.794;2022-09-17T04:53:38;3.40;;;1.20;;
63157;SDS011;49381;49.338;8.794;2022-09-17T04:55:38;3.13;;;1.00;;
63157;SDS011;49381;49.338;8.794;2022-09-17T04:57:38;5.05;;;1.17;;
63157;SDS011;49381;49.338;8.794;2022-09-17T04:59:45;3.50;;;1.00;;
63157;SDS011;49381;49.338;8.794;2022-09-17T05:01:45;4.57;;;0.95;;
63157;SDS011;49381;49.338;8.794;2022-09-17T05:03:47;3.00;;;0.93;;
63157;SDS011;49381;49.338;8.794;2022-09-17T05:05:47;2.40;;;0.73;;
63157;SDS011;49381;49.338;8.794;2022-09-17T05:07:47;4.32;;;1.25;;
63157;SDS011;49381;49.338;8.794;2022-09-17T05:09:48;1.30;;;0.80;;
63157;SDS011;49381;49.338;8.794;2022-09-17T05:11:48;7.10;;;1.10;;
63157;SDS011;49381;49.338;8.794;2022-09-17T05:13:48;5.00;;;1.27;;
63157;SDS011;49381;49.338;8.794;2022-09-17T05:15:49;4.75;;;1.60;;
63157;SDS011;49381;49.338;8.794;2022-09-17T05:17:49;5.45;;;1.10;;
63157;SDS011;49381;49.338;8.794;2022-09-17T05:19:51;2.40;;;0.90;;
63157;SDS011;49381;49.338;8.794;2022-09-17T05:21:51;2.13;;;1.02;;
63157;SDS011;49381;49.338;8.794;2022-09-17T05:23:51;2.97;;;1.33;;
63157;SDS011;49381;49.338;8.794;2022-09-17T05:25:52;5.18;;;1.30;;
63157;SDS011;49381;49.338;8.794;2022-09-17T05:27:57;5.75;;;1.55;;
63157;SDS011;49381;49.338;8.794;2022-09-17T05:29:57;2.88;;;1.30;;
63157;SDS011;49381;49.338;8.794;2022-09-17T05:31:57;4.35;;;1.52;;
63157;SDS011;49381;49.338;8.794;2022-09-17T05:33:58;3.88;;;1.15;;
63157;SDS011;49381;49.338;8.794;2022-09-17T05:35:59;3.10;;;1.02;;
63157;SDS011;49381;49.338;8.794;2022-09-17T05:38:01;2.78;;;1.42;;
63157;SDS011;49381;49.338;8.794;2022-09-17T05:40:04;7.22;;;2.47;;
63157;SDS011;49381;49.338;8.794;2022-09-17T05:42:06;4.63;;;1.50;;
63157;SDS011;49381;49.338;8.794;2022-09-17T05:44:06;4.32;;;1.45;;
63157;SDS011;49381;49.338;8.794;2022-09-17T05:46:06;4.47;;;1.42;;
63157;SDS011;49381;49.338;8.794;2022-09-17T05:48:08;3.28;;;1.48;;
63157;SDS011;49381;49.338;8.794;2022-09-17T05:50:11;4.85;;;1.63;;
63157;SDS011;49381;49.338;8.794;2022-09-17T05:52:12;4.90;;;1.85;;
63157;SDS011;49381;49.338;8.794;2022-09-17T05:54:12;2.50;;;1.33;;
63157;SDS011;49381;49.338;8.794;2022-09-17T05:56:13;3.70;;;1.45;;
63157;SDS011;49381;49.338;8.794;2022-09-17T05:58:14;7.57;;;1.67;;
63157;SDS011;49381;49.338;8.794;2022-09-17T06:00:16;4.97;;;1.50;;
63157;SDS011;49381;49.338;8.794;2022-09-17T06:02:17;5.93;;;1.75;;
63157;SDS011;49381;49.338;8.794;2022-09-17T06:04:17;8.32;;;1.60;;
63157;SDS011;49381;49.338;8.794;2022-09-17T06:06:17;4.30;;;1.60;;
63157;SDS011;49381;49.338;8.794;2022-09-17T06:08:19;4.60;;;2.08;;
63157;SDS011;49381;49.338;8.794;2022-09-17T06:10:20;4.95;;;2.20;;
63157;SDS011;49381;49.338;8.794;2022-09-17T06:12:20;4.60;;;1.83;;
63157;SDS011;49381;49.338;8.794;2022-09-17T06:14:20;5.47;;;1.90;;
63157;SDS011;49381;49.338;8.794;2022-09-17T06:16:21;5.10;;;1.50;;
63157;SDS011;49381;49.338;8.794;2022-09-17T06:18:22;5.07;;;1.65;;
63157;SDS011;49381;49.338;8.794;2022-09-17T06:20:22;5.68;;;1.83;;
63157;SDS011;49381;49.338;8.794;2022-09-17T06:22:22;6.13;;;2.30;;
63157;SDS011;49381;49.338;8.794;2022-09-17T06:24:24;3.42;;;1.73;;
63157;SDS011;49381;49.338;8.794;2022-09-17T06:26:24;4.78;;;1.70;;
63157;SDS011;49381;49.338;8.794;2022-09-17T06:28:25;4.03;;;1.98;;
63157;SDS011;49381;49.338;8.794;2022-09-17T06:30:26;5.60;;;2.30;;
63157;SDS011;49381;49.338;8.794;2022-09-17T06:32:26;5.65;;;2.13;;
63157;SDS011;49381;49.338;8.794;2022-09-17T06:34:27;5.32;;;2.35;;
63157;SDS011;49381;49.338;8.794;2022-09-17T06:36:27;6.43;;;2.42;;
63157;SDS011;49381;49.338;8.794;2022-09-17T06:38:28;8.05;;;2.15;;
63157;SDS011;49381;49.338;8.794;2022-09-17T06:40:31;6.05;;;2.45;;
63157;SDS011;49381;49.338;8.794;2022-09-17T06:42:31;6.50;;;2.58;;
63157;SDS011;49381;49.338;8.794;2022-09-17T06:44:32;7.07;;;2.20;;
63157;SDS011;49381;49.338;8.794;2022-09-17T06:46:32;10.63;;;2.60;;
63157;SDS011;49381;49.338;8.794;2022-09-17T06:48:32;5.53;;;2.47;;
63157;SDS011;49381;49.338;8.794;2022-09-17T06:50:34;5.80;;;2.22;;
63157;SDS011;49381;49.338;8.794;2022-09-17T06:52:34;5.03;;;2.53;;
63157;SDS011;49381;49.338;8.794;2022-09-17T06:54:34;3.75;;;2.30;;
63157;SDS011;49381;49.338;8.794;2022-09-17T06:56:36;6.00;;;2.47;;
63157;SDS011;49381;49.338;8.794;2022-09-17T06:58:36;5.55;;;2.17;;
63157;SDS011;49381;49.338;8.794;2022-09-17T07:00:37;4.95;;;2.40;;
63157;SDS011;49381;49.338;8.794;2022-09-17T07:02:37;6.85;;;2.58;;
63157;SDS011;49381;49.338;8.794;2022-09-17T07:04:38;8.90;;;2.72;;
63157;SDS011;49381;49.338;8.794;2022-09-17T07:06:38;7.45;;;2.60;;
63157;SDS011;49381;49.338;8.794;2022-09-17T07:08:38;6.90;;;2.45;;
63157;SDS011;49381;49.338;8.794;2022-09-17T07:10:39;5.97;;;2.17;;
63157;SDS011;49381;49.338;8.794;2022-09-17T07:12:40;8.32;;;2.50;;
63157;SDS011;49381;49.338;8.794;2022-09-17T07:14:41;5.60;;;2.53;;
63157;SDS011;49381;49.338;8.794;2022-09-17T07:16:41;10.82;;;2.60;;
63157;SDS011;49381;49.338;8.794;2022-09-17T07:18:41;6.72;;;2.70;;
63157;SDS011;49381;49.338;8.794;2022-09-17T07:20:42;6.95;;;2.75;;
63157;SDS011;49381;49.338;8.794;2022-09-17T07:22:42;6.72;;;2.30;;
63157;SDS011;49381;49.338;8.794;2022-09-17T07:24:42;8.07;;;2.80;;
63157;SDS011;49381;49.338;8.794;2022-09-17T07:26:43;6.80;;;2.45;;
63157;SDS011;49381;49.338;8.794;2022-09-17T07:28:44;6.55;;;2.60;;
63157;SDS011;49381;49.338;8.794;2022-09-17T07:30:45;7.28;;;2.35;;
63157;SDS011;49381;49.338;8.794;2022-09-17T07:32:45;5.22;;;1.83;;
63157;SDS011;49381;49.338;8.794;2022-09-17T07:34:46;7.93;;;2.40;;
63157;SDS011;49381;49.338;8.794;2022-09-17T07:36:46;9.27;;;2.63;;
63157;SDS011;49381;49.338;8.794;2022-09-17T07:38:47;8.40;;;2.70;;
63157;SDS011;49381;49.338;8.794;2022-09-17T07:40:52;8.52;;;2.78;;
63157;SDS011;49381;49.338;8.794;2022-09-17T07:42:55;5.15;;;2.63;;
63157;SDS011;49381;49.338;8.794;2022-09-17T07:44:57;8.93;;;2.47;;
63157;SDS011;49381;49.338;8.794;2022-09-17T07:46:57;7.57;;;3.47;;
63157;SDS011;49381;49.338;8.794;2022-09-17T07:48:58;9.55;;;2.85;;
63157;SDS011;49381;49.338;8.794;2022-09-17T07:50:58;7.82;;;2.70;;
63157;SDS011;49381;49.338;8.794;2022-09-17T07:52:59;10.63;;;2.38;;
63157;SDS011;49381;49.338;8.794;2022-09-17T07:54:59;5.10;;;2.38;;
63157;SDS011;49381;49.338;8.794;2022-09-17T07:56:59;5.07;;;2.65;;
63157;SDS011;49381;49.338;8.794;2022-09-17T07:59:01;5.25;;;2.67;;
63157;SDS011;49381;49.338;8.794;2022-09-17T08:01:03;18.33;;;3.00;;
63157;SDS011;49381;49.338;8.794;2022-09-17T08:03:04;7.70;;;2.20;;
63157;SDS011;49381;49.338;8.794;2022-09-17T08:05:05;8.43;;;2.30;;
63157;SDS011;49381;49.338;8.794;2022-09-17T08:07:05;7.15;;;2.67;;
63157;SDS011;49381;49.338;8.794;2022-09-17T08:09:06;9.50;;;2.90;;
63157;SDS011;49381;49.338;8.794;2022-09-17T08:11:07;7.47;;;2.70;;
63157;SDS011;49381;49.338;8.794;2022-09-17T08:13:08;4.65;;;2.63;;
63157;SDS011;49381;49.338;8.794;2022-09-17T08:15:09;8.02;;;3.05;;
63157;SDS011;49381;49.338;8.794;2022-09-17T08:17:11;5.13;;;2.95;;
63157;SDS011;49381;49.338;8.794;2022-09-17T08:19:11;7.15;;;2.42;;
63157;SDS011;49381;49.338;8.794;2022-09-17T08:21:12;6.15;;;2.97;;
63157;SDS011;49381;49.338;8.794;2022-09-17T08:23:13;7.93;;;2.90;;
63157;SDS011;49381;49.338;8.794;2022-09-17T08:25:13;8.20;;;2.60;;
63157;SDS011;49381;49.338;8.794;2022-09-17T08:27:14;5.47;;;2.85;;
63157;SDS011;49381;49.338;8.794;2022-09-17T08:29:14;8.38;;;3.28;;
63157;SDS011;49381;49.338;8.794;2022-09-17T08:31:15;10.52;;;2.97;;
63157;SDS011;49381;49.338;8.794;2022-09-17T08:33:18;8.23;;;2.83;;
63157;SDS011;49381;49.338;8.794;2022-09-17T08:35:19;5.63;;;2.70;;
63157;SDS011;49381;49.338;8.794;2022-09-17T08:37:19;7.78;;;2.13;;
63157;SDS011;49381;49.338;8.794;2022-09-17T08:39:20;4.85;;;2.47;;
63157;SDS011;49381;49.338;8.794;2022-09-17T08:41:22;4.40;;;2.50;;
63157;SDS011;49381;49.338;8.794;2022-09-17T08:43:27;6.90;;;2.75;;
63157;SDS011;49381;49.338;8.794;2022-09-17T08:45:30;12.73;;;2.90;;
63157;SDS011;49381;49.338;8.794;2022-09-17T08:47:32;8.80;;;2.67;;
63157;SDS011;49381;49.338;8.794;2022-09-17T08:49:39;10.75;;;2.20;;
63157;SDS011;49381;49.338;8.794;2022-09-17T08:51:46;4.80;;;2.13;;
63157;SDS011;49381;49.338;8.794;2022-09-17T08:53:54;7.35;;;2.38;;
63157;SDS011;49381;49.338;8.794;2022-09-17T08:56:04;7.07;;;2.17;;
63157;SDS011;49381;49.338;8.794;2022-09-17T08:58:21;9.25;;;2.58;;
63157;SDS011;49381;49.338;8.794;2022-09-17T09:00:44;10.23;;;2.08;;
63157;SDS011;49381;49.338;8.794;2022-09-17T09:05:04;7.20;;;2.60;;
63157;SDS011;49381;49.338;8.794;2022-09-17T09:07:10;8.93;;;2.35;;
63157;SDS011;49381;49.338;8.794;2022-09-17T09:09:15;8.38;;;2.15;;
63157;SDS011;49381;49.338;8.794;2022-09-17T09:11:20;5.32;;;1.70;;
63157;SDS011;49381;49.338;8.794;2022-09-17T09:13:23;6.00;;;2.40;;
63157;SDS011;49381;49.338;8.794;2022-09-17T09:15:29;6.88;;;1.88;;
63157;SDS011;49381;49.338;8.794;2022-09-17T09:17:37;7.70;;;1.90;;
63157;SDS011;49381;49.338;8.794;2022-09-17T09:19:42;5.07;;;1.95;;
63157;SDS011;49381;49.338;8.794;2022-09-17T09:21:46;8.85;;;2.17;;
63157;SDS011;49381;49.338;8.794;2022-09-17T09:23:58;6.72;;;2.03;;
63157;SDS011;49381;49.338;8.794;2022-09-17T09:26:07;5.43;;;2.55;;
63157;SDS011;49381;49.338;8.794;2022-09-17T09:28:15;6.35;;;1.85;;
63157;SDS011;49381;49.338;8.794;2022-09-17T09:30:28;5.93;;;1.95;;
63157;SDS011;49381;49.338;8.794;2022-09-17T09:32:42;5.30;;;1.67;;
63157;SDS011;49381;49.338;8.794;2022-09-17T09:34:51;9.93;;;3.08;;
63157;SDS011;49381;49.338;8.794;2022-09-17T09:36:57;8.35;;;3.80;;
63157;SDS011;49381;49.338;8.794;2022-09-17T09:39:11;9.15;;;2.70;;
63157;SDS011;49381;49.338;8.794;2022-09-17T09:41:18;8.48;;;2.42;;
63157;SDS011;49381;49.338;8.794;2022-09-17T09:43:23;5.97;;;2.20;;
63157;SDS011;49381;49.338;8.794;2022-09-17T09:45:37;5.40;;;1.90;;
63157;SDS011;49381;49.338;8.794;2022-09-17T09:47:49;6.25;;;1.90;;
63157;SDS011;49381;49.338;8.794;2022-09-17T09:49:59;6.43;;;2.17;;
63157;SDS011;49381;49.338;8.794;2022-09-17T09:52:12;7.63;;;2.10;;
63157;SDS011;49381;49.338;8.794;2022-09-17T09:54:29;4.95;;;1.83;;
63157;SDS011;49381;49.338;8.794;2022-09-17T09:56:44;7.80;;;2.28;;
63157;SDS011;49381;49.338;8.794;2022-09-17T09:58:50;8.45;;;2.28;;
63157;SDS011;49381;49.338;8.794;2022-09-17T10:00:51;7.28;;;3.22;;
63157;SDS011;49381;49.338;8.794;2022-09-17T10:02:52;6.38;;;2.55;;
63157;SDS011;49381;49.338;8.794;2022-09-17T10:04:54;9.55;;;2.90;;
63157;SDS011;49381;49.338;8.794;2022-09-17T10:07:08;5.50;;;1.85;;
63157;SDS011;49381;49.338;8.794;2022-09-17T10:09:12;5.03;;;1.23;;
63157;SDS011;49381;49.338;8.794;2022-09-17T10:11:18;4.38;;;1.17;;
63157;SDS011;49381;49.338;8.794;2022-09-17T10:13:20;6.53;;;1.90;;
63157;SDS011;49381;49.338;8.794;2022-09-17T10:15:24;6.05;;;1.67;;
63157;SDS011;49381;49.338;8.794;2022-09-17T10:17:26;5.15;;;1.40;;
63157;SDS011;49381;49.338;8.794;2022-09-17T10:19:27;4.72;;;1.40;;
63157;SDS011;49381;49.338;8.794;2022-09-17T10:21:29;3.17;;;1.00;;
63157;SDS011;49381;49.338;8.794;2022-09-17T10:23:31;4.97;;;1.20;;
63157;SDS011;49381;49.338;8.794;2022-09-17T10:25:40;4.05;;;1.10;;
63157;SDS011;49381;49.338;8.794;2022-09-17T10:27:41;6.57;;;1.25;;
63157;SDS011;49381;49.338;8.794;2022-09-17T10:29:43;4.03;;;1.30;;
63157;SDS011;49381;49.338;8.794;2022-09-17T10:31:46;5.20;;;1.83;;
63157;SDS011;49381;49.338;8.794;2022-09-17T10:33:57;5.22;;;1.10;;
63157;SDS011;49381;49.338;8.794;2022-09-17T10:36:01;4.32;;;1.38;;
63157;SDS011;49381;49.338;8.794;2022-09-17T10:38:03;7.03;;;1.45;;
63157;SDS011;49381;49.338;8.794;2022-09-17T10:40:15;4.65;;;1.20;;
63157;SDS011;49381;49.338;8.794;2022-09-17T10:42:28;8.57;;;2.00;;
63157;SDS011;49381;49.338;8.794;2022-09-17T10:44:30;3.05;;;1.23;;
63157;SDS011;49381;49.338;8.794;2022-09-17T10:46:31;5.88;;;1.35;;
63157;SDS011;49381;49.338;8.794;2022-09-17T10:48:35;3.75;;;1.40;;
63157;SDS011;49381;49.338;8.794;2022-09-17T10:50:40;7.30;;;2.30;;
63157;SDS011;49381;49.338;8.794;2022-09-17T10:52:47;5.20;;;1.70;;
63157;SDS011;49381;49.338;8.794;2022-09-17T10:57:33;7.20;;;1.67;;
63157;SDS011;49381;49.338;8.794;2022-09-17T10:59:48;6.80;;;1.73;;
63157;SDS011;49381;49.338;8.794;2022-09-17T11:02:01;5.00;;;1.33;;
63157;SDS011;49381;49.338;8.794;2022-09-17T11:04:24;5.00;;;1.60;;
63157;SDS011;49381;49.338;8.794;2022-09-17T11:06:37;7.45;;;1.63;;
63157;SDS011;49381;49.338;8.794;2022-09-17T11:08:49;6.43;;;1.40;;
63157;SDS011;49381;49.338;8.794;2022-09-17T11:10:59;4.55;;;1.00;;
63157;SDS011;49381;49.338;8.794;2022-09-17T11:13:11;4.22;;;1.30;;
63157;SDS011;49381;49.338;8.794;2022-09-17T11:15:21;4.60;;;1.38;;
63157;SDS011;49381;49.338;8.794;2022-09-17T11:17:37;5.25;;;1.52;;
63157;SDS011;49381;49.338;8.794;2022-09-17T11:19:58;3.10;;;1.05;;
63157;SDS011;49381;49.338;8.794;2022-09-17T11:22:02;3.30;;;0.90;;
63157;SDS011;49381;49.338;8.794;2022-09-17T11:24:18;4.28;;;0.93;;
63157;SDS011;49381;49.338;8.794;2022-09-17T11:26:28;6.20;;;1.35;;
63157;SDS011;49381;49.338;8.794;2022-09-17T11:28:37;6.93;;;1.17;;
63157;SDS011;49381;49.338;8.794;2022-09-17T11:30:51;5.70;;;1.23;;
63157;SDS011;49381;49.338;8.794;2022-09-17T11:33:03;7.50;;;1.20;;
63157;SDS011;49381;49.338;8.794;2022-09-17T11:35:17;9.55;;;1.55;;
63157;SDS011;49381;49.338;8.794;2022-09-17T11:37:21;8.20;;;1.60;;
63157;SDS011;49381;49.338;8.794;2022-09-17T11:39:26;4.75;;;1.45;;
63157;SDS011;49381;49.338;8.794;2022-09-17T11:41:34;5.93;;;1.27;;
63157;SDS011;49381;49.338;8.794;2022-09-17T11:43:41;6.03;;;1.10;;
63157;SDS011;49381;49.338;8.794;2022-09-17T11:45:46;8.05;;;1.17;;
63157;SDS011;49381;49.338;8.794;2022-09-17T11:47:53;3.70;;;0.75;;
63157;SDS011;49381;49.338;8.794;2022-09-17T11:49:59;4.15;;;1.25;;
63157;SDS011;49381;49.338;8.794;2022-09-17T11:52:03;4.63;;;1.35;;
63157;SDS011;49381;49.338;8.794;2022-09-17T11:54:07;2.67;;;0.63;;
63157;SDS011;49381;49.338;8.794;2022-09-17T11:56:19;3.17;;;1.00;;
63157;SDS011;49381;49.338;8.794;2022-09-17T12:00:28;3.45;;;1.27;;
63157;SDS011;49381;49.338;8.794;2022-09-17T12:02:37;4.35;;;0.77;;
63157;SDS011;49381;49.338;8.794;2022-09-17T12:04:48;15.88;;;1.63;;
63157;SDS011;49381;49.338;8.794;2022-09-17T12:06:55;4.22;;;0.77;;
63157;SDS011;49381;49.338;8.794;2022-09-17T12:09:00;3.88;;;0.52;;
63157;SDS011;49381;49.338;8.794;2022-09-17T12:11:05;2.10;;;0.50;;
63157;SDS011;49381;49.338;8.794;2022-09-17T12:13:16;2.78;;;0.63;;
63157;SDS011;49381;49.338;8.794;2022-09-17T12:15:22;3.60;;;1.02;;
63157;SDS011;49381;49.338;8.794;2022-09-17T12:17:27;3.63;;;0.80;;
63157;SDS011;49381;49.338;8.794;2022-09-17T12:19:34;3.95;;;1.08;;
63157;SDS011;49381;49.338;8.794;2022-09-17T12:21:36;1.90;;;0.60;;
63157;SDS011;49381;49.338;8.794;2022-09-17T12:23:41;2.78;;;0.70;;
63157;SDS011;49381;49.338;8.794;2022-09-17T12:25:47;3.63;;;0.90;;
63157;SDS011;49381;49.338;8.794;2022-09-17T12:27:52;3.72;;;0.77;;
63157;SDS011;49381;49.338;8.794;2022-09-17T12:32:21;4.40;;;0.82;;
63157;SDS011;49381;49.338;8.794;2022-09-17T12:34:33;3.38;;;0.70;;
63157;SDS011;49381;49.338;8.794;2022-09-17T12:36:44;2.55;;;0.95;;
63157;SDS011;49381;49.338;8.794;2022-09-17T12:38:57;5.68;;;1.02;;
63157;SDS011;49381;49.338;8.794;2022-09-17T12:41:19;7.28;;;0.70;;